sensor_id;sensor_type;location;lat;lon;timestamp;temperature;humidity
22139;DHT22;25815;52.582;13.408;2024-03-17T00:00:42;4.60;99.90
22139;DHT22;25815;52.582;13.408;2024-03-17T00:03:08;4.50;99.90
22139;DHT22;25815;52.582;13.408;2024-03-17T00:05:37;4.50;99.90
22139;DHT22;25815;52.582;13.408;2024-03-17T00:08:06;4.50;99.90
22139;DHT22;25815;52.582;13.408;2024-03-17T00:10:32;4.40;99.90
22139;DHT22;25815;52.582;13.408;2024-03-17T00:12:57;4.50;99.90
22139;DHT22;25815;52.582;13.408;2024-03-17T00:15:24;4.50;99.90
22139;DHT22;25815;52.582;13.408;2024-03-17T00:17:49;4.40;99.90
22139;DHT22;25815;52.582;13.408;2024-03-17T00:20:15;4.40;99.90
22139;DHT22;25815;52.582;13.408;2024-03-17T00:22:50;4.40;99.90
22139;DHT22;25815;52.582;13.408;2024-03-17T00:25:16;4.40;99.90
22139;DHT22;25815;52.582;13.408;2024-03-17T00:27:43;4.40;99.90
22139;DHT22;25815;52.582;13.408;2024-03-17T00:30:10;4.30;99.90
22139;DHT22;25815;52.582;13.408;2024-03-17T00:32:39;4.30;99.90
22139;DHT22;25815;52.582;13.408;2024-03-17T00:35:09;4.40;99.90
22139;DHT22;25815;52.582;13.408;2024-03-17T00:37:36;4.40;99.90
22139;DHT22;25815;52.582;13.408;2024-03-17T00:40:03;4.30;99.90
22139;DHT22;25815;52.582;13.408;2024-03-17T00:42:29;4.40;99.90
22139;DHT22;25815;52.582;13.408;2024-03-17T00:44:56;4.30;99.90
22139;DHT22;25815;52.582;13.408;2024-03-17T00:47:21;4.40;99.90
22139;DHT22;25815;52.582;13.408;2024-03-17T00:49:47;4.30;99.90
22139;DHT22;25815;52.582;13.408;2024-03-17T00:52:15;4.30;99.90
22139;DHT22;25815;52.582;13.408;2024-03-17T00:54:41;4.30;99.90
22139;DHT22;25815;52.582;13.408;2024-03-17T00:57:07;4.30;99.90
22139;DHT22;25815;52.582;13.408;2024-03-17T00:59:32;4.30;99.90
22139;DHT22;25815;52.582;13.408;2024-03-17T01:01:58;4.30;99.90
22139;DHT22;25815;52.582;13.408;2024-03-17T01:04:24;4.20;99.90
22139;DHT22;25815;52.582;13.408;2024-03-17T01:06:49;4.20;99.90
22139;DHT22;25815;52.582;13.408;2024-03-17T01:09:15;4.30;99.90
22139;DHT22;25815;52.582;13.408;2024-03-17T01:11:40;4.20;99.90
22139;DHT22;25815;52.582;13.408;2024-03-17T01:14:05;4.20;99.90
22139;DHT22;25815;52.582;13.408;2024-03-17T01:16:33;4.20;99.90
22139;DHT22;25815;52.582;13.408;2024-03-17T01:18:58;4.20;99.90
22139;DHT22;25815;52.582;13.408;2024-03-17T01:21:24;4.20;99.90
22139;DHT22;25815;52.582;13.408;2024-03-17T01:23:49;4.10;99.90
22139;DHT22;25815;52.582;13.408;2024-03-17T01:26:15;4.10;99.90
22139;DHT22;25815;52.582;13.408;2024-03-17T01:28:40;4.10;99.90
22139;DHT22;25815;52.582;13.408;2024-03-17T01:31:06;4.10;99.90
22139;DHT22;25815;52.582;13.408;2024-03-17T01:33:32;4.10;99.90
22139;DHT22;25815;52.582;13.408;2024-03-17T01:35:58;4.10;99.90
22139;DHT22;25815;52.582;13.408;2024-03-17T01:38:23;4.10;99.90
22139;DHT22;25815;52.582;13.408;2024-03-17T01:40:49;4.10;99.90
22139;DHT22;25815;52.582;13.408;2024-03-17T01:43:14;4.10;99.90
22139;DHT22;25815;52.582;13.408;2024-03-17T01:45:40;4.10;99.90
22139;DHT22;25815;52.582;13.408;2024-03-17T01:48:12;4.00;99.90
22139;DHT22;25815;52.582;13.408;2024-03-17T01:50:39;4.00;99.90
22139;DHT22;25815;52.582;13.408;2024-03-17T01:53:09;4.10;99.90
22139;DHT22;25815;52.582;13.408;2024-03-17T01:55:38;4.00;99.90
22139;DHT22;25815;52.582;13.408;2024-03-17T01:58:04;4.00;99.90
22139;DHT22;25815;52.582;13.408;2024-03-17T02:00:34;4.00;99.90
22139;DHT22;25815;52.582;13.408;2024-03-17T02:03:08;4.10;99.90
22139;DHT22;25815;52.582;13.408;2024-03-17T02:05:35;4.10;99.90
22139;DHT22;25815;52.582;13.408;2024-03-17T02:08:05;4.10;99.90
22139;DHT22;25815;52.582;13.408;2024-03-17T02:10:32;4.10;99.90
22139;DHT22;25815;52.582;13.408;2024-03-17T02:13:00;4.10;99.90
22139;DHT22;25815;52.582;13.408;2024-03-17T02:15:26;4.10;99.90
22139;DHT22;25815;52.582;13.408;2024-03-17T02:17:51;4.10;99.90
22139;DHT22;25815;52.582;13.408;2024-03-17T02:20:17;4.00;99.90
22139;DHT22;25815;52.582;13.408;2024-03-17T02:22:43;4.00;99.90
22139;DHT22;25815;52.582;13.408;2024-03-17T02:25:09;4.00;99.90
22139;DHT22;25815;52.582;13.408;2024-03-17T02:27:37;3.90;99.90
22139;DHT22;25815;52.582;13.408;2024-03-17T02:30:04;3.90;99.90
22139;DHT22;25815;52.582;13.408;2024-03-17T02:32:35;3.80;99.90
22139;DHT22;25815;52.582;13.408;2024-03-17T02:35:00;3.80;99.90
22139;DHT22;25815;52.582;13.408;2024-03-17T02:37:26;3.80;99.90
22139;DHT22;25815;52.582;13.408;2024-03-17T02:39:52;3.70;99.90
22139;DHT22;25815;52.582;13.408;2024-03-17T02:42:18;3.80;99.90
22139;DHT22;25815;52.582;13.408;2024-03-17T02:44:43;3.80;99.90
22139;DHT22;25815;52.582;13.408;2024-03-17T02:47:09;3.80;99.90
22139;DHT22;25815;52.582;13.408;2024-03-17T02:49:35;3.70;99.90
22139;DHT22;25815;52.582;13.408;2024-03-17T02:52:08;3.60;99.90
22139;DHT22;25815;52.582;13.408;2024-03-17T02:54:35;3.60;99.90
22139;DHT22;25815;52.582;13.408;2024-03-17T02:57:04;3.60;99.90
22139;DHT22;25815;52.582;13.408;2024-03-17T02:59:30;3.60;99.90
22139;DHT22;25815;52.582;13.408;2024-03-17T03:01:56;3.70;99.90
22139;DHT22;25815;52.582;13.408;2024-03-17T03:04:22;3.70;99.90
22139;DHT22;25815;52.582;13.408;2024-03-17T03:06:48;3.60;99.90
22139;DHT22;25815;52.582;13.408;2024-03-17T03:09:14;3.50;99.90
22139;DHT22;25815;52.582;13.408;2024-03-17T03:11:40;3.50;99.90
22139;DHT22;25815;52.582;13.408;2024-03-17T03:14:07;3.40;99.90
22139;DHT22;25815;52.582;13.408;2024-03-17T03:16:33;3.40;99.90
22139;DHT22;25815;52.582;13.408;2024-03-17T03:18:58;3.40;99.90
22139;DHT22;25815;52.582;13.408;2024-03-17T03:21:24;3.40;99.90
22139;DHT22;25815;52.582;13.408;2024-03-17T03:23:51;3.30;99.90
22139;DHT22;25815;52.582;13.408;2024-03-17T03:26:17;3.30;99.90
22139;DHT22;25815;52.582;13.408;2024-03-17T03:28:43;3.30;99.90
22139;DHT22;25815;52.582;13.408;2024-03-17T03:31:12;3.30;99.90
22139;DHT22;25815;52.582;13.408;2024-03-17T03:33:41;3.30;99.90
22139;DHT22;25815;52.582;13.408;2024-03-17T03:36:10;3.30;99.90
22139;DHT22;25815;52.582;13.408;2024-03-17T03:38:36;3.10;99.90
22139;DHT22;25815;52.582;13.408;2024-03-17T03:41:09;3.10;99.90
22139;DHT22;25815;52.582;13.408;2024-03-17T03:43:34;3.20;99.90
22139;DHT22;25815;52.582;13.408;2024-03-17T03:46:01;3.10;99.90
22139;DHT22;25815;52.582;13.408;2024-03-17T03:48:27;3.10;99.90
22139;DHT22;25815;52.582;13.408;2024-03-17T03:50:52;3.10;99.90
22139;DHT22;25815;52.582;13.408;2024-03-17T03:53:19;3.10;99.90
22139;DHT22;25815;52.582;13.408;2024-03-17T03:55:45;3.00;99.90
22139;DHT22;25815;52.582;13.408;2024-03-17T03:58:11;3.10;99.90
22139;DHT22;25815;52.582;13.408;2024-03-17T04:00:38;3.00;99.90
22139;DHT22;25815;52.582;13.408;2024-03-17T04:03:04;3.00;99.90
22139;DHT22;25815;52.582;13.408;2024-03-17T04:05:30;3.00;99.90
22139;DHT22;25815;52.582;13.408;2024-03-17T04:07:55;2.90;99.90
22139;DHT22;25815;52.582;13.408;2024-03-17T04:10:21;2.90;99.90
22139;DHT22;25815;52.582;13.408;2024-03-17T04:12:48;2.90;99.90
22139;DHT22;25815;52.582;13.408;2024-03-17T04:15:13;2.90;99.90
22139;DHT22;25815;52.582;13.408;2024-03-17T04:17:39;2.90;99.90
22139;DHT22;25815;52.582;13.408;2024-03-17T04:20:06;2.90;99.90
22139;DHT22;25815;52.582;13.408;2024-03-17T04:22:34;2.90;99.90
22139;DHT22;25815;52.582;13.408;2024-03-17T04:24:59;2.90;99.90
22139;DHT22;25815;52.582;13.408;2024-03-17T04:27:26;2.90;99.90
22139;DHT22;25815;52.582;13.408;2024-03-17T04:29:59;2.80;99.90
22139;DHT22;25815;52.582;13.408;2024-03-17T04:32:25;2.90;99.90
22139;DHT22;25815;52.582;13.408;2024-03-17T04:34:52;2.80;99.90
22139;DHT22;25815;52.582;13.408;2024-03-17T04:37:18;2.80;99.90
22139;DHT22;25815;52.582;13.408;2024-03-17T04:39:45;2.80;99.90
22139;DHT22;25815;52.582;13.408;2024-03-17T04:42:12;2.80;99.90
22139;DHT22;25815;52.582;13.408;2024-03-17T04:44:37;2.90;99.90
22139;DHT22;25815;52.582;13.408;2024-03-17T04:47:03;2.80;99.90
22139;DHT22;25815;52.582;13.408;2024-03-17T04:49:36;2.70;99.90
22139;DHT22;25815;52.582;13.408;2024-03-17T04:52:01;2.70;99.90
22139;DHT22;25815;52.582;13.408;2024-03-17T04:54:27;2.70;99.90
22139;DHT22;25815;52.582;13.408;2024-03-17T04:56:53;2.80;99.90
22139;DHT22;25815;52.582;13.408;2024-03-17T04:59:18;2.70;99.90
22139;DHT22;25815;52.582;13.408;2024-03-17T05:01:44;2.70;99.90
22139;DHT22;25815;52.582;13.408;2024-03-17T05:04:09;2.60;99.90
22139;DHT22;25815;52.582;13.408;2024-03-17T05:06:35;2.60;99.90
22139;DHT22;25815;52.582;13.408;2024-03-17T05:09:01;2.60;99.90
22139;DHT22;25815;52.582;13.408;2024-03-17T05:11:26;2.50;99.90
22139;DHT22;25815;52.582;13.408;2024-03-17T05:13:52;2.50;99.90
22139;DHT22;25815;52.582;13.408;2024-03-17T05:16:17;2.50;99.90
22139;DHT22;25815;52.582;13.408;2024-03-17T05:18:43;2.50;99.90
22139;DHT22;25815;52.582;13.408;2024-03-17T05:21:09;2.40;99.90
22139;DHT22;25815;52.582;13.408;2024-03-17T05:23:36;2.40;99.90
22139;DHT22;25815;52.582;13.408;2024-03-17T05:26:03;2.40;99.90
22139;DHT22;25815;52.582;13.408;2024-03-17T05:28:31;2.50;99.90
22139;DHT22;25815;52.582;13.408;2024-03-17T05:30:57;2.50;99.90
22139;DHT22;25815;52.582;13.408;2024-03-17T05:33:24;2.50;99.90
22139;DHT22;25815;52.582;13.408;2024-03-17T05:35:50;2.40;99.90
22139;DHT22;25815;52.582;13.408;2024-03-17T05:38:19;2.50;99.90
22139;DHT22;25815;52.582;13.408;2024-03-17T05:40:58;2.50;99.90
22139;DHT22;25815;52.582;13.408;2024-03-17T05:43:26;2.40;99.90
22139;DHT22;25815;52.582;13.408;2024-03-17T05:45:53;2.40;99.90
22139;DHT22;25815;52.582;13.408;2024-03-17T05:48:18;2.40;99.90
22139;DHT22;25815;52.582;13.408;2024-03-17T05:50:44;2.40;99.90
22139;DHT22;25815;52.582;13.408;2024-03-17T05:53:10;2.40;99.90
22139;DHT22;25815;52.582;13.408;2024-03-17T05:55:36;2.40;99.90
22139;DHT22;25815;52.582;13.408;2024-03-17T05:58:02;2.40;99.90
22139;DHT22;25815;52.582;13.408;2024-03-17T06:00:28;2.40;99.90
22139;DHT22;25815;52.582;13.408;2024-03-17T06:02:54;2.50;99.90
22139;DHT22;25815;52.582;13.408;2024-03-17T06:05:19;2.50;99.90
22139;DHT22;25815;52.582;13.408;2024-03-17T06:07:45;2.50;99.90
22139;DHT22;25815;52.582;13.408;2024-03-17T06:10:12;2.60;99.90
22139;DHT22;25815;52.582;13.408;2024-03-17T06:12:37;2.70;99.90
22139;DHT22;25815;52.582;13.408;2024-03-17T06:15:03;2.60;99.90
22139;DHT22;25815;52.582;13.408;2024-03-17T06:17:29;2.70;99.90
22139;DHT22;25815;52.582;13.408;2024-03-17T06:19:55;2.80;99.90
22139;DHT22;25815;52.582;13.408;2024-03-17T06:22:22;2.80;99.90
22139;DHT22;25815;52.582;13.408;2024-03-17T06:24:48;2.80;99.90
22139;DHT22;25815;52.582;13.408;2024-03-17T06:27:14;2.80;99.90
22139;DHT22;25815;52.582;13.408;2024-03-17T06:29:40;2.70;99.90
22139;DHT22;25815;52.582;13.408;2024-03-17T06:32:05;2.80;99.90
22139;DHT22;25815;52.582;13.408;2024-03-17T06:34:31;2.80;99.90
22139;DHT22;25815;52.582;13.408;2024-03-17T06:36:56;2.90;99.90
22139;DHT22;25815;52.582;13.408;2024-03-17T06:39:22;2.90;99.90
22139;DHT22;25815;52.582;13.408;2024-03-17T06:41:47;3.00;99.90
22139;DHT22;25815;52.582;13.408;2024-03-17T06:44:13;3.10;99.90
22139;DHT22;25815;52.582;13.408;2024-03-17T06:46:38;3.00;99.90
22139;DHT22;25815;52.582;13.408;2024-03-17T06:49:04;3.10;99.90
22139;DHT22;25815;52.582;13.408;2024-03-17T06:51:29;3.10;99.90
22139;DHT22;25815;52.582;13.408;2024-03-17T06:53:55;3.20;99.90
22139;DHT22;25815;52.582;13.408;2024-03-17T06:56:20;3.30;99.90
22139;DHT22;25815;52.582;13.408;2024-03-17T06:58:46;3.40;99.90
22139;DHT22;25815;52.582;13.408;2024-03-17T07:01:12;3.40;99.90
22139;DHT22;25815;52.582;13.408;2024-03-17T07:03:37;3.50;99.90
22139;DHT22;25815;52.582;13.408;2024-03-17T07:06:03;3.50;99.90
22139;DHT22;25815;52.582;13.408;2024-03-17T07:08:30;3.60;99.90
22139;DHT22;25815;52.582;13.408;2024-03-17T07:11:00;3.70;99.90
22139;DHT22;25815;52.582;13.408;2024-03-17T07:13:29;3.70;99.90
22139;DHT22;25815;52.582;13.408;2024-03-17T07:15:55;3.80;99.90
22139;DHT22;25815;52.582;13.408;2024-03-17T07:18:21;3.90;99.90
22139;DHT22;25815;52.582;13.408;2024-03-17T07:20:46;4.00;99.90
22139;DHT22;25815;52.582;13.408;2024-03-17T07:23:15;4.10;99.90
22139;DHT22;25815;52.582;13.408;2024-03-17T07:25:41;4.10;99.90
22139;DHT22;25815;52.582;13.408;2024-03-17T07:28:08;4.20;99.90
22139;DHT22;25815;52.582;13.408;2024-03-17T07:30:33;4.20;99.90
22139;DHT22;25815;52.582;13.408;2024-03-17T07:32:59;4.30;99.90
22139;DHT22;25815;52.582;13.408;2024-03-17T07:35:24;4.30;99.90
22139;DHT22;25815;52.582;13.408;2024-03-17T07:37:50;4.40;99.90
22139;DHT22;25815;52.582;13.408;2024-03-17T07:40:16;4.40;99.90
22139;DHT22;25815;52.582;13.408;2024-03-17T07:42:42;4.40;99.90
22139;DHT22;25815;52.582;13.408;2024-03-17T07:45:07;4.50;99.90
22139;DHT22;25815;52.582;13.408;2024-03-17T07:47:33;4.60;99.90
22139;DHT22;25815;52.582;13.408;2024-03-17T07:50:04;4.60;99.90
22139;DHT22;25815;52.582;13.408;2024-03-17T07:52:31;4.60;99.90
22139;DHT22;25815;52.582;13.408;2024-03-17T07:54:57;4.70;99.90
22139;DHT22;25815;52.582;13.408;2024-03-17T07:57:22;4.70;99.90
22139;DHT22;25815;52.582;13.408;2024-03-17T07:59:51;4.80;99.90
22139;DHT22;25815;52.582;13.408;2024-03-17T08:02:17;4.90;99.90
22139;DHT22;25815;52.582;13.408;2024-03-17T08:04:42;4.90;99.90
22139;DHT22;25815;52.582;13.408;2024-03-17T08:07:10;5.00;99.90
22139;DHT22;25815;52.582;13.408;2024-03-17T08:09:36;5.10;99.90
22139;DHT22;25815;52.582;13.408;2024-03-17T08:12:01;5.20;99.90
22139;DHT22;25815;52.582;13.408;2024-03-17T08:14:30;5.30;99.90
22139;DHT22;25815;52.582;13.408;2024-03-17T08:16:55;5.30;99.90
22139;DHT22;25815;52.582;13.408;2024-03-17T08:19:21;5.20;99.90
22139;DHT22;25815;52.582;13.408;2024-03-17T08:21:46;5.30;99.90
22139;DHT22;25815;52.582;13.408;2024-03-17T08:24:12;5.30;99.90
22139;DHT22;25815;52.582;13.408;2024-03-17T08:26:38;5.40;99.90
22139;DHT22;25815;52.582;13.408;2024-03-17T08:29:05;5.40;99.90
22139;DHT22;25815;52.582;13.408;2024-03-17T08:31:31;5.20;99.90
22139;DHT22;25815;52.582;13.408;2024-03-17T08:33:57;5.20;99.90
22139;DHT22;25815;52.582;13.408;2024-03-17T08:36:23;5.30;99.90
22139;DHT22;25815;52.582;13.408;2024-03-17T08:38:49;5.30;99.90
22139;DHT22;25815;52.582;13.408;2024-03-17T08:41:15;5.40;99.90
22139;DHT22;25815;52.582;13.408;2024-03-17T08:43:41;5.50;99.90
22139;DHT22;25815;52.582;13.408;2024-03-17T08:46:09;5.60;99.90
22139;DHT22;25815;52.582;13.408;2024-03-17T08:48:36;5.70;99.90
22139;DHT22;25815;52.582;13.408;2024-03-17T08:51:03;5.70;99.90
22139;DHT22;25815;52.582;13.408;2024-03-17T08:53:29;5.70;99.90
22139;DHT22;25815;52.582;13.408;2024-03-17T08:55:56;5.70;99.90
22139;DHT22;25815;52.582;13.408;2024-03-17T08:58:22;5.80;99.90
22139;DHT22;25815;52.582;13.408;2024-03-17T09:00:49;5.90;99.90
22139;DHT22;25815;52.582;13.408;2024-03-17T09:03:14;5.90;99.90
22139;DHT22;25815;52.582;13.408;2024-03-17T09:05:44;6.00;99.90
22139;DHT22;25815;52.582;13.408;2024-03-17T09:08:18;6.00;99.90
22139;DHT22;25815;52.582;13.408;2024-03-17T09:10:46;6.00;99.90
22139;DHT22;25815;52.582;13.408;2024-03-17T09:13:20;6.00;99.90
22139;DHT22;25815;52.582;13.408;2024-03-17T09:15:59;6.00;99.90
22139;DHT22;25815;52.582;13.408;2024-03-17T09:18:28;5.90;99.90
22139;DHT22;25815;52.582;13.408;2024-03-17T09:21:05;5.90;99.90
22139;DHT22;25815;52.582;13.408;2024-03-17T09:23:31;6.00;99.90
22139;DHT22;25815;52.582;13.408;2024-03-17T09:26:04;6.20;99.90
22139;DHT22;25815;52.582;13.408;2024-03-17T09:28:31;6.30;99.90
22139;DHT22;25815;52.582;13.408;2024-03-17T09:30:57;6.30;99.90
22139;DHT22;25815;52.582;13.408;2024-03-17T09:33:24;6.40;99.90
22139;DHT22;25815;52.582;13.408;2024-03-17T09:35:54;6.40;99.90
22139;DHT22;25815;52.582;13.408;2024-03-17T09:38:20;6.40;99.90
22139;DHT22;25815;52.582;13.408;2024-03-17T09:40:47;6.40;99.90
22139;DHT22;25815;52.582;13.408;2024-03-17T09:43:19;6.60;99.90
22139;DHT22;25815;52.582;13.408;2024-03-17T09:45:45;6.60;99.90
22139;DHT22;25815;52.582;13.408;2024-03-17T09:48:15;6.70;99.90
22139;DHT22;25815;52.582;13.408;2024-03-17T09:50:50;6.60;99.90
22139;DHT22;25815;52.582;13.408;2024-03-17T09:53:17;6.60;99.90
22139;DHT22;25815;52.582;13.408;2024-03-17T09:55:46;6.60;99.90
22139;DHT22;25815;52.582;13.408;2024-03-17T09:58:16;6.70;99.90
22139;DHT22;25815;52.582;13.408;2024-03-17T10:00:43;6.70;99.90
22139;DHT22;25815;52.582;13.408;2024-03-17T10:03:09;6.80;99.90
22139;DHT22;25815;52.582;13.408;2024-03-17T10:05:34;6.90;99.90
22139;DHT22;25815;52.582;13.408;2024-03-17T10:08:00;6.90;99.90
22139;DHT22;25815;52.582;13.408;2024-03-17T10:10:25;6.90;99.90
22139;DHT22;25815;52.582;13.408;2024-03-17T10:12:51;6.90;99.90
22139;DHT22;25815;52.582;13.408;2024-03-17T10:15:18;6.90;99.90
22139;DHT22;25815;52.582;13.408;2024-03-17T10:17:43;7.10;99.90
22139;DHT22;25815;52.582;13.408;2024-03-17T10:20:17;7.20;99.90
22139;DHT22;25815;52.582;13.408;2024-03-17T10:23:03;7.30;99.90
22139;DHT22;25815;52.582;13.408;2024-03-17T10:25:31;7.30;99.90
22139;DHT22;25815;52.582;13.408;2024-03-17T10:27:57;7.10;99.90
22139;DHT22;25815;52.582;13.408;2024-03-17T10:30:24;7.10;99.90
22139;DHT22;25815;52.582;13.408;2024-03-17T10:33:01;7.20;99.90
22139;DHT22;25815;52.582;13.408;2024-03-17T10:35:32;7.40;99.90
22139;DHT22;25815;52.582;13.408;2024-03-17T10:37:59;7.50;99.90
22139;DHT22;25815;52.582;13.408;2024-03-17T10:40:26;7.30;99.90
22139;DHT22;25815;52.582;13.408;2024-03-17T10:42:52;7.30;99.90
22139;DHT22;25815;52.582;13.408;2024-03-17T10:45:18;7.40;99.90
22139;DHT22;25815;52.582;13.408;2024-03-17T10:47:47;7.40;99.90
22139;DHT22;25815;52.582;13.408;2024-03-17T10:50:18;7.60;99.90
22139;DHT22;25815;52.582;13.408;2024-03-17T10:52:45;7.80;99.90
22139;DHT22;25815;52.582;13.408;2024-03-17T10:55:23;8.10;99.90
22139;DHT22;25815;52.582;13.408;2024-03-17T10:57:51;8.10;99.90
22139;DHT22;25815;52.582;13.408;2024-03-17T11:00:21;8.30;99.90
22139;DHT22;25815;52.582;13.408;2024-03-17T11:02:52;8.30;99.90
22139;DHT22;25815;52.582;13.408;2024-03-17T11:05:23;8.40;99.90
22139;DHT22;25815;52.582;13.408;2024-03-17T11:07:52;8.50;99.90
22139;DHT22;25815;52.582;13.408;2024-03-17T11:10:33;8.30;99.90
22139;DHT22;25815;52.582;13.408;2024-03-17T11:13:00;8.40;99.90
22139;DHT22;25815;52.582;13.408;2024-03-17T11:20:37;7.90;99.90
22139;DHT22;25815;52.582;13.408;2024-03-17T11:23:04;7.90;99.90
22139;DHT22;25815;52.582;13.408;2024-03-17T11:27:59;7.70;99.90
22139;DHT22;25815;52.582;13.408;2024-03-17T11:46:59;8.70;99.90
22139;DHT22;25815;52.582;13.408;2024-03-17T11:52:00;9.00;99.90
22139;DHT22;25815;52.582;13.408;2024-03-17T11:54:27;8.90;99.90
22139;DHT22;25815;52.582;13.408;2024-03-17T11:56:55;8.90;99.90
22139;DHT22;25815;52.582;13.408;2024-03-17T11:59:21;8.90;99.90
22139;DHT22;25815;52.582;13.408;2024-03-17T12:01:48;8.80;99.90
22139;DHT22;25815;52.582;13.408;2024-03-17T12:04:18;8.90;99.90
22139;DHT22;25815;52.582;13.408;2024-03-17T12:06:52;8.70;99.90
22139;DHT22;25815;52.582;13.408;2024-03-17T12:09:22;8.60;99.90
22139;DHT22;25815;52.582;13.408;2024-03-17T12:12:14;8.60;99.90
22139;DHT22;25815;52.582;13.408;2024-03-17T12:14:37;8.90;99.90
22139;DHT22;25815;52.582;13.408;2024-03-17T12:17:11;9.10;99.90
22139;DHT22;25815;52.582;13.408;2024-03-17T12:19:37;9.30;99.90
22139;DHT22;25815;52.582;13.408;2024-03-17T12:22:06;9.40;99.90
22139;DHT22;25815;52.582;13.408;2024-03-17T12:24:36;9.20;99.90
22139;DHT22;25815;52.582;13.408;2024-03-17T12:27:04;9.10;99.90
22139;DHT22;25815;52.582;13.408;2024-03-17T12:29:37;9.00;99.90
22139;DHT22;25815;52.582;13.408;2024-03-17T12:34:36;8.60;99.90
22139;DHT22;25815;52.582;13.408;2024-03-17T12:37:02;8.60;99.90
22139;DHT22;25815;52.582;13.408;2024-03-17T12:39:33;8.50;99.90
22139;DHT22;25815;52.582;13.408;2024-03-17T12:44:31;8.60;99.90
22139;DHT22;25815;52.582;13.408;2024-03-17T12:47:02;8.70;99.90
22139;DHT22;25815;52.582;13.408;2024-03-17T12:49:29;8.60;99.90
22139;DHT22;25815;52.582;13.408;2024-03-17T12:51:55;8.60;99.90
22139;DHT22;25815;52.582;13.408;2024-03-17T12:54:22;8.60;99.90
22139;DHT22;25815;52.582;13.408;2024-03-17T12:56:49;8.70;99.90
22139;DHT22;25815;52.582;13.408;2024-03-17T12:59:37;8.90;99.90
22139;DHT22;25815;52.582;13.408;2024-03-17T13:02:21;8.90;99.90
22139;DHT22;25815;52.582;13.408;2024-03-17T13:07:40;9.30;99.90
22139;DHT22;25815;52.582;13.408;2024-03-17T13:10:05;9.40;99.90
22139;DHT22;25815;52.582;13.408;2024-03-17T13:12:35;9.50;99.90
22139;DHT22;25815;52.582;13.408;2024-03-17T13:15:01;9.30;99.90
22139;DHT22;25815;52.582;13.408;2024-03-17T13:17:27;9.30;99.90
22139;DHT22;25815;52.582;13.408;2024-03-17T13:19:54;9.30;99.90
22139;DHT22;25815;52.582;13.408;2024-03-17T13:22:20;9.30;99.90
22139;DHT22;25815;52.582;13.408;2024-03-17T13:24:45;9.20;99.90
22139;DHT22;25815;52.582;13.408;2024-03-17T13:27:12;9.00;99.90
22139;DHT22;25815;52.582;13.408;2024-03-17T13:29:39;9.20;99.90
22139;DHT22;25815;52.582;13.408;2024-03-17T13:32:09;9.20;99.90
22139;DHT22;25815;52.582;13.408;2024-03-17T13:34:35;9.10;99.90
22139;DHT22;25815;52.582;13.408;2024-03-17T13:37:00;9.10;99.90
22139;DHT22;25815;52.582;13.408;2024-03-17T13:39:31;9.10;99.90
22139;DHT22;25815;52.582;13.408;2024-03-17T13:41:57;9.00;99.90
22139;DHT22;25815;52.582;13.408;2024-03-17T13:44:32;9.00;99.90
22139;DHT22;25815;52.582;13.408;2024-03-17T13:46:58;9.00;99.90
22139;DHT22;25815;52.582;13.408;2024-03-17T13:49:24;8.90;99.90
22139;DHT22;25815;52.582;13.408;2024-03-17T13:51:50;9.00;99.90
22139;DHT22;25815;52.582;13.408;2024-03-17T13:54:15;9.00;99.90
22139;DHT22;25815;52.582;13.408;2024-03-17T13:56:41;9.10;99.90
22139;DHT22;25815;52.582;13.408;2024-03-17T13:59:07;9.20;99.90
22139;DHT22;25815;52.582;13.408;2024-03-17T14:01:33;9.10;99.90
22139;DHT22;25815;52.582;13.408;2024-03-17T14:03:58;9.20;99.90
22139;DHT22;25815;52.582;13.408;2024-03-17T14:06:24;9.50;99.90
22139;DHT22;25815;52.582;13.408;2024-03-17T14:08:49;9.60;99.90
22139;DHT22;25815;52.582;13.408;2024-03-17T14:11:15;9.50;99.90
22139;DHT22;25815;52.582;13.408;2024-03-17T14:13:40;9.50;99.90
22139;DHT22;25815;52.582;13.408;2024-03-17T14:16:06;9.60;99.90
22139;DHT22;25815;52.582;13.408;2024-03-17T14:18:32;9.30;99.90
22139;DHT22;25815;52.582;13.408;2024-03-17T14:20:58;9.50;99.90
22139;DHT22;25815;52.582;13.408;2024-03-17T14:23:24;9.40;99.90
22139;DHT22;25815;52.582;13.408;2024-03-17T14:25:50;9.30;99.90
22139;DHT22;25815;52.582;13.408;2024-03-17T14:28:15;9.30;99.90
22139;DHT22;25815;52.582;13.408;2024-03-17T14:30:41;9.50;99.90
22139;DHT22;25815;52.582;13.408;2024-03-17T14:33:07;9.50;99.90
22139;DHT22;25815;52.582;13.408;2024-03-17T14:35:33;9.70;99.90
22139;DHT22;25815;52.582;13.408;2024-03-17T14:37:59;9.70;99.90
22139;DHT22;25815;52.582;13.408;2024-03-17T14:40:26;10.00;99.90
22139;DHT22;25815;52.582;13.408;2024-03-17T14:42:54;9.90;99.90
22139;DHT22;25815;52.582;13.408;2024-03-17T14:45:21;9.40;99.90
22139;DHT22;25815;52.582;13.408;2024-03-17T14:47:49;9.10;99.90
22139;DHT22;25815;52.582;13.408;2024-03-17T14:50:15;8.90;99.90
22139;DHT22;25815;52.582;13.408;2024-03-17T14:52:42;8.80;99.90
22139;DHT22;25815;52.582;13.408;2024-03-17T14:55:09;8.80;99.90
22139;DHT22;25815;52.582;13.408;2024-03-17T14:57:40;8.80;99.90
22139;DHT22;25815;52.582;13.408;2024-03-17T15:00:11;8.70;99.90
22139;DHT22;25815;52.582;13.408;2024-03-17T15:02:44;8.70;99.90
22139;DHT22;25815;52.582;13.408;2024-03-17T15:05:13;8.70;99.90
22139;DHT22;25815;52.582;13.408;2024-03-17T15:07:44;8.50;99.90
22139;DHT22;25815;52.582;13.408;2024-03-17T15:10:10;8.40;99.90
22139;DHT22;25815;52.582;13.408;2024-03-17T15:12:35;8.50;99.90
22139;DHT22;25815;52.582;13.408;2024-03-17T15:15:01;8.50;99.90
22139;DHT22;25815;52.582;13.408;2024-03-17T15:17:27;8.60;99.90
22139;DHT22;25815;52.582;13.408;2024-03-17T15:19:53;8.60;99.90
22139;DHT22;25815;52.582;13.408;2024-03-17T15:22:18;8.50;99.90
22139;DHT22;25815;52.582;13.408;2024-03-17T15:24:47;8.60;99.90
22139;DHT22;25815;52.582;13.408;2024-03-17T15:27:12;8.60;99.90
22139;DHT22;25815;52.582;13.408;2024-03-17T15:29:40;8.60;99.90
22139;DHT22;25815;52.582;13.408;2024-03-17T15:32:06;8.60;99.90
22139;DHT22;25815;52.582;13.408;2024-03-17T15:34:32;8.70;99.90
22139;DHT22;25815;52.582;13.408;2024-03-17T15:36:59;8.70;99.90
22139;DHT22;25815;52.582;13.408;2024-03-17T15:39:24;8.70;99.90
22139;DHT22;25815;52.582;13.408;2024-03-17T15:41:50;8.80;99.90
22139;DHT22;25815;52.582;13.408;2024-03-17T15:44:15;8.70;99.90
22139;DHT22;25815;52.582;13.408;2024-03-17T15:46:46;8.70;99.90
22139;DHT22;25815;52.582;13.408;2024-03-17T15:49:14;8.60;99.90
22139;DHT22;25815;52.582;13.408;2024-03-17T15:51:39;8.60;99.90
22139;DHT22;25815;52.582;13.408;2024-03-17T15:54:06;8.50;99.90
22139;DHT22;25815;52.582;13.408;2024-03-17T15:56:32;8.60;99.90
22139;DHT22;25815;52.582;13.408;2024-03-17T15:58:59;8.60;99.90
22139;DHT22;25815;52.582;13.408;2024-03-17T16:01:24;8.50;99.90
22139;DHT22;25815;52.582;13.408;2024-03-17T16:03:51;8.40;99.90